Aberdeen Regional Airport Aberdeen US
ICAO: KABR
IATA: ABR
Category: Medium
Scheduled Services: Yes

Elevation: 1302 ft
TransAlt. 18000 ft.

Airport Communications:
ASOS:125.875
MINNEAPOLIS CNTR:120.6
CTAF:122.7
HURON RDO:122.4
UNICOM:122.95

KABR Zoom In..

If you have problems with the map follow the link
https://www.worldairports.se/pages/airport.php?
ICAO=KABR

Runways:

(A) RW 13 length 6901 ft width 100 ft
---- / hdg 128

(B) RW 17 length 5500 ft width 100 ft
---- / hdg 173

(C) RW 31 length 6901 ft width 100 ft
ILS 109.90 / hdg 308

(D) RW 35 length 5500 ft width 100 ft
---- / hdg 353

Location; KABR
Day. 18 / Time. 23.53 Zulu
* Altimeter: 29.92
* Temperature: 19° c. 66.2°f.
* Wind from: 180° Speed 15 kn with Gusts up to 23 kn.
Dewpoint: 05° c.
Visibility: 10 Statute Miles.
Clouds: Clear (automated report).

KABR 182353Z AUTO 18015G23KT 10SM CLR 19/05 A2992 RMK AO2 SLP135 T01940050 10239 20194 58024


Wind From 180°
Speed 15 kn.

 
 
jpsmedia.com for Web Design worldairports.se 2018   terms of use